Terminal Aerodrome Forecast
Issued by NWS

Current Version | Previous Version | Graphics & Text | Print | Product List | Glossary On
Versions: 1 2 3 4 5 6 7 8 9 10 11 12 13 14 15 16
000
FTUS41 KRNK 231722
TAFLWB
TAF
KLWB 231722Z 2318/2418 31008KT P6SM SCT015 BKN035
     FM232200 32007KT P6SM SCT040
     FM240900 00000KT 1/4SM FG VV001
     FM241400 00000KT P6SM FEW250=

USA.gov is the U.S. government's official web portal to all federal, state and local government web resources and services.